Carolina, Rhode Island
Current Conditions -  °F | °C
As of 7:53 AM on Friday 19 Dec 2014 (Local Time) from KWST Reporting Station
Scattered Clouds Scattered Clouds  
Wind Chill: 29°   Ceiling: Unl
Heat Index: 35°   Visibility: 10mi
Dew Point: 21°   Wind: 7mph
Humidity: 57%   Direction: NA
Pressure: 29.96"   Gusts: NA
Location:  41.46°N, 71.66°W
Report Text: KWST 191253Z AUTO VRB06KT 10SM SCT042 02/M06 A2996 RMK AO2 SLP145 T00171061
Loading
Personal Weather Stations






























Interactive Weather Map New forecast layout! Learn more

10-Day Weather Forecast

Advertisements
Track Severe Weather on mobile